sensor_id;sensor_type;location;lat;lon;timestamp;noise_LAeq;noise_LA_min;noise_LA_max;noise_LA01;noise_LA95
60031;Laerm;45901;47.600;9.890;2023-04-05T00:00:14;40.45;38.21;44.62;;
60031;Laerm;45901;47.600;9.890;2023-04-05T00:02:42;40.28;37.88;41.89;;
60031;Laerm;45901;47.600;9.890;2023-04-05T00:05:09;40.30;38.21;41.89;;
60031;Laerm;45901;47.600;9.890;2023-04-05T00:07:37;40.28;38.21;42.03;;
60031;Laerm;45901;47.600;9.890;2023-04-05T00:10:06;40.32;37.88;42.09;;
60031;Laerm;45901;47.600;9.890;2023-04-05T00:12:33;40.30;37.88;41.89;;
60031;Laerm;45901;47.600;9.890;2023-04-05T00:15:02;40.36;37.52;45.07;;
60031;Laerm;45901;47.600;9.890;2023-04-05T00:17:31;40.34;38.21;41.89;;
60031;Laerm;45901;47.600;9.890;2023-04-05T00:19:58;40.36;38.37;42.41;;
60031;Laerm;45901;47.600;9.890;2023-04-05T00:22:26;40.35;37.88;42.03;;
60031;Laerm;45901;47.600;9.890;2023-04-05T00:24:56;40.36;38.52;41.96;;
60031;Laerm;45901;47.600;9.890;2023-04-05T00:27:23;40.32;38.21;42.09;;
60031;Laerm;45901;47.600;9.890;2023-04-05T00:29:51;40.39;38.05;44.27;;
60031;Laerm;45901;47.600;9.890;2023-04-05T00:32:19;40.37;38.21;42.35;;
60031;Laerm;45901;47.600;9.890;2023-04-05T00:34:46;40.38;38.21;42.35;;
60031;Laerm;45901;47.600;9.890;2023-04-05T00:37:14;40.40;38.21;42.47;;
60031;Laerm;45901;47.600;9.890;2023-04-05T00:39:41;40.38;38.21;41.96;;
60031;Laerm;45901;47.600;9.890;2023-04-05T00:42:08;40.39;37.70;42.09;;
60031;Laerm;45901;47.600;9.890;2023-04-05T00:44:35;40.46;37.52;44.69;;
60031;Laerm;45901;47.600;9.890;2023-04-05T00:47:04;40.43;38.52;42.16;;
60031;Laerm;45901;47.600;9.890;2023-04-05T00:49:35;40.39;37.88;42.09;;
60031;Laerm;45901;47.600;9.890;2023-04-05T00:52:02;40.41;38.05;41.96;;
60031;Laerm;45901;47.600;9.890;2023-04-05T00:54:29;40.40;38.05;42.42;;
60031;Laerm;45901;47.600;9.890;2023-04-05T00:56:57;40.38;38.05;42.35;;
60031;Laerm;45901;47.600;9.890;2023-04-05T00:59:25;40.41;38.21;44.43;;
60031;Laerm;45901;47.600;9.890;2023-04-05T01:01:59;40.68;38.05;45.23;;
60031;Laerm;45901;47.600;9.890;2023-04-05T01:04:30;40.43;38.21;42.03;;
60031;Laerm;45901;47.600;9.890;2023-04-05T01:07:08;40.42;38.37;42.29;;
60031;Laerm;45901;47.600;9.890;2023-04-05T01:09:47;40.43;38.37;42.16;;
60031;Laerm;45901;47.600;9.890;2023-04-05T01:12:18;40.46;38.05;42.16;;
60031;Laerm;45901;47.600;9.890;2023-04-05T01:14:49;40.49;38.21;43.72;;
60031;Laerm;45901;47.600;9.890;2023-04-05T01:17:17;40.49;38.37;42.22;;
60031;Laerm;45901;47.600;9.890;2023-04-05T01:19:48;40.50;38.37;42.16;;
60031;Laerm;45901;47.600;9.890;2023-04-05T01:26:10;40.49;37.88;42.16;;
60031;Laerm;45901;47.600;9.890;2023-04-05T01:32:21;40.52;38.37;44.80;;
60031;Laerm;45901;47.600;9.890;2023-04-05T01:34:58;40.48;38.21;42.47;;
60031;Laerm;45901;47.600;9.890;2023-04-05T01:37:31;40.48;38.05;42.09;;
60031;Laerm;45901;47.600;9.890;2023-04-05T01:40:00;40.52;38.37;42.16;;
60031;Laerm;45901;47.600;9.890;2023-04-05T01:42:29;40.54;38.52;42.71;;
60031;Laerm;45901;47.600;9.890;2023-04-05T01:44:57;40.57;38.21;44.15;;
60031;Laerm;45901;47.600;9.890;2023-04-05T01:47:25;40.53;38.67;42.29;;
60031;Laerm;45901;47.600;9.890;2023-04-05T01:49:52;40.48;38.21;42.03;;
60031;Laerm;45901;47.600;9.890;2023-04-05T01:52:19;40.49;38.52;42.09;;
60031;Laerm;45901;47.600;9.890;2023-04-05T01:54:47;40.50;38.05;42.09;;
60031;Laerm;45901;47.600;9.890;2023-04-05T01:57:14;40.49;37.88;41.89;;
60031;Laerm;45901;47.600;9.890;2023-04-05T01:59:41;40.75;38.52;44.73;;
60031;Laerm;45901;47.600;9.890;2023-04-05T02:02:08;40.58;38.67;42.47;;
60031;Laerm;45901;47.600;9.890;2023-04-05T02:04:37;40.53;38.52;42.41;;
60031;Laerm;45901;47.600;9.890;2023-04-05T02:07:04;40.57;38.52;42.35;;
60031;Laerm;45901;47.600;9.890;2023-04-05T02:09:31;40.57;38.37;42.16;;
60031;Laerm;45901;47.600;9.890;2023-04-05T02:11:58;40.54;38.37;42.22;;
60031;Laerm;45901;47.600;9.890;2023-04-05T02:14:26;40.57;38.81;42.35;;
60031;Laerm;45901;47.600;9.890;2023-04-05T02:16:53;40.56;38.52;43.68;;
60031;Laerm;45901;47.600;9.890;2023-04-05T02:19:22;40.56;38.52;42.16;;
60031;Laerm;45901;47.600;9.890;2023-04-05T02:21:52;40.57;38.37;42.09;;
60031;Laerm;45901;47.600;9.890;2023-04-05T02:24:19;40.61;38.67;42.59;;
60031;Laerm;45901;47.600;9.890;2023-04-05T02:26:46;40.57;38.67;42.16;;
60031;Laerm;45901;47.600;9.890;2023-04-05T02:29:14;40.59;38.37;42.22;;
60031;Laerm;45901;47.600;9.890;2023-04-05T02:31:41;40.63;38.52;43.58;;
60031;Laerm;45901;47.600;9.890;2023-04-05T02:34:08;40.58;38.05;42.16;;
60031;Laerm;45901;47.600;9.890;2023-04-05T02:36:36;40.59;38.05;42.47;;
60031;Laerm;45901;47.600;9.890;2023-04-05T02:39:04;40.58;38.67;42.19;;
60031;Laerm;45901;47.600;9.890;2023-04-05T02:41:32;40.59;38.52;42.22;;
60031;Laerm;45901;47.600;9.890;2023-04-05T02:43:59;40.60;38.52;42.47;;
60031;Laerm;45901;47.600;9.890;2023-04-05T02:46:26;40.66;38.05;44.15;;
60031;Laerm;45901;47.600;9.890;2023-04-05T02:48:53;40.63;38.95;42.29;;
60031;Laerm;45901;47.600;9.890;2023-04-05T02:51:20;40.75;38.67;42.65;;
60031;Laerm;45901;47.600;9.890;2023-04-05T02:53:47;40.66;38.81;42.16;;
60031;Laerm;45901;47.600;9.890;2023-04-05T02:56:16;40.65;38.05;42.22;;
60031;Laerm;45901;47.600;9.890;2023-04-05T02:58:43;40.67;38.67;42.47;;
60031;Laerm;45901;47.600;9.890;2023-04-05T03:01:13;40.92;38.67;44.87;;
60031;Laerm;45901;47.600;9.890;2023-04-05T03:03:43;40.65;38.52;42.29;;
60031;Laerm;45901;47.600;9.890;2023-04-05T03:06:10;40.66;38.05;42.16;;
60031;Laerm;45901;47.600;9.890;2023-04-05T03:08:39;40.69;38.52;42.35;;
60031;Laerm;45901;47.600;9.890;2023-04-05T03:11:09;40.69;38.52;42.29;;
60031;Laerm;45901;47.600;9.890;2023-04-05T03:13:38;40.69;38.81;42.09;;
60031;Laerm;45901;47.600;9.890;2023-04-05T03:16:05;40.73;38.81;44.07;;
60031;Laerm;45901;47.600;9.890;2023-04-05T03:18:33;40.72;38.81;42.22;;
60031;Laerm;45901;47.600;9.890;2023-04-05T03:21:00;40.72;38.95;42.47;;
60031;Laerm;45901;47.600;9.890;2023-04-05T03:23:30;40.74;38.81;42.22;;
60031;Laerm;45901;47.600;9.890;2023-04-05T03:25:58;40.73;38.95;42.42;;
60031;Laerm;45901;47.600;9.890;2023-04-05T03:28:26;40.71;38.81;42.53;;
60031;Laerm;45901;47.600;9.890;2023-04-05T03:30:55;40.78;38.52;44.23;;
60031;Laerm;45901;47.600;9.890;2023-04-05T03:33:22;40.73;38.81;42.22;;
60031;Laerm;45901;47.600;9.890;2023-04-05T03:35:49;40.76;38.67;42.47;;
60031;Laerm;45901;47.600;9.890;2023-04-05T03:38:17;40.72;38.67;42.29;;
60031;Laerm;45901;47.600;9.890;2023-04-05T03:40:44;40.84;38.81;42.65;;
60031;Laerm;45901;47.600;9.890;2023-04-05T03:43:11;40.74;38.52;42.35;;
60031;Laerm;45901;47.600;9.890;2023-04-05T03:45:38;40.82;38.81;44.83;;
60031;Laerm;45901;47.600;9.890;2023-04-05T03:48:07;40.88;38.95;45.54;;
60031;Laerm;45901;47.600;9.890;2023-04-05T03:50:34;40.96;38.87;43.77;;
60031;Laerm;45901;47.600;9.890;2023-04-05T03:53:01;40.82;39.08;42.65;;
60031;Laerm;45901;47.600;9.890;2023-04-05T03:55:30;40.84;38.81;43.63;;
60031;Laerm;45901;47.600;9.890;2023-04-05T03:57:57;40.90;38.67;45.91;;
60031;Laerm;45901;47.600;9.890;2023-04-05T04:00:24;41.19;39.21;46.35;;
60031;Laerm;45901;47.600;9.890;2023-04-05T04:02:51;40.88;38.67;44.51;;
60031;Laerm;45901;47.600;9.890;2023-04-05T04:05:20;40.99;38.67;44.47;;
60031;Laerm;45901;47.600;9.890;2023-04-05T04:07:47;41.07;38.52;44.54;;
60031;Laerm;45901;47.600;9.890;2023-04-05T04:10:15;40.99;39.08;44.35;;
60031;Laerm;45901;47.600;9.890;2023-04-05T04:12:43;41.12;38.87;45.77;;
60031;Laerm;45901;47.600;9.890;2023-04-05T04:15:11;41.07;38.95;44.51;;
60031;Laerm;45901;47.600;9.890;2023-04-05T04:17:38;41.08;39.08;44.80;;
60031;Laerm;45901;47.600;9.890;2023-04-05T04:20:07;41.03;39.21;44.15;;
60031;Laerm;45901;47.600;9.890;2023-04-05T04:22:38;40.99;39.21;43.58;;
60031;Laerm;45901;47.600;9.890;2023-04-05T04:25:07;41.13;38.67;44.54;;
60031;Laerm;45901;47.600;9.890;2023-04-05T04:27:37;41.27;39.08;48.64;;
60031;Laerm;45901;47.600;9.890;2023-04-05T04:30:07;41.13;39.08;45.42;;
60031;Laerm;45901;47.600;9.890;2023-04-05T04:32:36;40.94;39.08;45.07;;
60031;Laerm;45901;47.600;9.890;2023-04-05T04:35:22;40.95;39.08;47.12;;
60031;Laerm;45901;47.600;9.890;2023-04-05T04:37:54;40.99;39.08;46.87;;
60031;Laerm;45901;47.600;9.890;2023-04-05T04:40:24;40.97;39.08;46.35;;
60031;Laerm;45901;47.600;9.890;2023-04-05T04:42:54;41.13;38.21;50.57;;
60031;Laerm;45901;47.600;9.890;2023-04-05T04:45:23;40.97;38.95;45.69;;
60031;Laerm;45901;47.600;9.890;2023-04-05T04:47:50;41.26;39.21;46.97;;
60031;Laerm;45901;47.600;9.890;2023-04-05T04:50:19;41.27;39.08;49.80;;
60031;Laerm;45901;47.600;9.890;2023-04-05T04:52:47;41.43;39.21;50.03;;
60031;Laerm;45901;47.600;9.890;2023-04-05T04:55:15;41.03;38.81;43.44;;
60031;Laerm;45901;47.600;9.890;2023-04-05T04:57:42;40.96;38.95;42.71;;
60031;Laerm;45901;47.600;9.890;2023-04-05T05:00:11;41.21;38.95;46.15;;
60031;Laerm;45901;47.600;9.890;2023-04-05T05:02:41;40.88;39.08;42.41;;
60031;Laerm;45901;47.600;9.890;2023-04-05T05:05:09;41.12;39.21;53.53;;
60031;Laerm;45901;47.600;9.890;2023-04-05T05:07:38;41.30;39.08;52.23;;
60031;Laerm;45901;47.600;9.890;2023-04-05T05:10:08;41.37;39.21;44.54;;
60031;Laerm;45901;47.600;9.890;2023-04-05T05:12:37;41.23;39.21;44.11;;
60031;Laerm;45901;47.600;9.890;2023-04-05T05:15:06;41.04;39.21;43.54;;
60031;Laerm;45901;47.600;9.890;2023-04-05T05:17:33;41.10;39.21;43.14;;
60031;Laerm;45901;47.600;9.890;2023-04-05T05:20:00;41.25;39.23;44.69;;
60031;Laerm;45901;47.600;9.890;2023-04-05T05:22:34;40.88;38.95;42.47;;
60031;Laerm;45901;47.600;9.890;2023-04-05T05:25:02;40.89;38.99;42.47;;
60031;Laerm;45901;47.600;9.890;2023-04-05T05:27:30;41.30;39.46;47.38;;
60031;Laerm;45901;47.600;9.890;2023-04-05T05:30:00;41.22;38.81;50.77;;
60031;Laerm;45901;47.600;9.890;2023-04-05T05:32:27;41.08;38.81;50.42;;
60031;Laerm;45901;47.600;9.890;2023-04-05T05:34:54;41.34;38.95;56.50;;
60031;Laerm;45901;47.600;9.890;2023-04-05T05:37:28;41.27;39.08;54.54;;
60031;Laerm;45901;47.600;9.890;2023-04-05T05:39:55;41.45;39.34;53.60;;
60031;Laerm;45901;47.600;9.890;2023-04-05T05:42:22;41.06;39.08;46.25;;
60031;Laerm;45901;47.600;9.890;2023-04-05T05:44:49;40.98;39.08;45.20;;
60031;Laerm;45901;47.600;9.890;2023-04-05T05:47:18;41.14;38.95;45.07;;
60031;Laerm;45901;47.600;9.890;2023-04-05T05:49:45;41.12;39.46;46.35;;
60031;Laerm;45901;47.600;9.890;2023-04-05T05:52:14;42.57;39.68;46.87;;
60031;Laerm;45901;47.600;9.890;2023-04-05T05:54:41;41.16;38.81;43.81;;
60031;Laerm;45901;47.600;9.890;2023-04-05T05:57:08;41.47;39.08;46.38;;
60031;Laerm;45901;47.600;9.890;2023-04-05T05:59:35;41.44;39.08;49.79;;
60031;Laerm;45901;47.600;9.890;2023-04-05T06:02:02;41.43;39.58;47.39;;
60031;Laerm;45901;47.600;9.890;2023-04-05T06:04:31;41.03;39.21;43.19;;
60031;Laerm;45901;47.600;9.890;2023-04-05T06:06:59;41.10;39.08;45.60;;
60031;Laerm;45901;47.600;9.890;2023-04-05T06:09:26;41.03;38.81;44.94;;
60031;Laerm;45901;47.600;9.890;2023-04-05T06:11:53;41.16;38.95;45.54;;
60031;Laerm;45901;47.600;9.890;2023-04-05T06:14:21;41.05;39.21;42.76;;
60031;Laerm;45901;47.600;9.890;2023-04-05T06:16:48;44.68;39.34;51.87;;
60031;Laerm;45901;47.600;9.890;2023-04-05T06:19:15;43.59;39.34;52.52;;
60031;Laerm;45901;47.600;9.890;2023-04-05T06:21:44;41.12;38.95;43.24;;
60031;Laerm;45901;47.600;9.890;2023-04-05T06:24:11;41.18;39.08;43.68;;
60031;Laerm;45901;47.600;9.890;2023-04-05T06:27:20;46.37;39.58;52.34;;
60031;Laerm;45901;47.600;9.890;2023-04-05T06:30:33;43.69;39.92;50.09;;
60031;Laerm;45901;47.600;9.890;2023-04-05T06:34:15;43.69;39.08;55.53;;
60031;Laerm;45901;47.600;9.890;2023-04-05T06:40:47;41.20;38.81;49.50;;
60031;Laerm;45901;47.600;9.890;2023-04-05T06:47:48;41.13;38.95;50.50;;
60031;Laerm;45901;47.600;9.890;2023-04-05T06:50:38;43.67;39.08;53.12;;
60031;Laerm;45901;47.600;9.890;2023-04-05T06:56:49;41.47;39.08;46.93;;
60031;Laerm;45901;47.600;9.890;2023-04-05T07:19:55;40.81;38.52;46.57;;
60031;Laerm;45901;47.600;9.890;2023-04-05T07:22:23;40.81;38.52;43.58;;
60031;Laerm;45901;47.600;9.890;2023-04-05T07:24:50;40.91;39.08;47.16;;
60031;Laerm;45901;47.600;9.890;2023-04-05T07:27:18;40.92;38.81;42.71;;
60031;Laerm;45901;47.600;9.890;2023-04-05T07:29:45;40.86;38.81;44.15;;
60031;Laerm;45901;47.600;9.890;2023-04-05T07:32:13;40.98;38.95;44.07;;
60031;Laerm;45901;47.600;9.890;2023-04-05T07:34:40;41.09;38.52;47.44;;
60031;Laerm;45901;47.600;9.890;2023-04-05T07:37:09;41.24;38.95;52.42;;
60031;Laerm;45901;47.600;9.890;2023-04-05T07:39:36;41.26;38.81;48.16;;
60031;Laerm;45901;47.600;9.890;2023-04-05T07:42:03;41.22;38.52;45.91;;
60031;Laerm;45901;47.600;9.890;2023-04-05T07:44:31;40.91;38.37;45.57;;
60031;Laerm;45901;47.600;9.890;2023-04-05T07:46:58;40.99;38.67;43.34;;
60031;Laerm;45901;47.600;9.890;2023-04-05T07:49:26;40.97;38.95;45.97;;
60031;Laerm;45901;47.600;9.890;2023-04-05T07:52:04;40.71;38.52;43.99;;
60031;Laerm;45901;47.600;9.890;2023-04-05T07:54:32;40.83;38.21;43.58;;
60031;Laerm;45901;47.600;9.890;2023-04-05T07:57:00;40.86;38.37;45.89;;
60031;Laerm;45901;47.600;9.890;2023-04-05T07:59:27;40.81;38.37;50.57;;
60031;Laerm;45901;47.600;9.890;2023-04-05T08:06:44;41.09;38.05;49.32;;
60031;Laerm;45901;47.600;9.890;2023-04-05T08:25:21;42.13;38.37;46.33;;
60031;Laerm;45901;47.600;9.890;2023-04-05T08:27:49;40.27;38.05;43.09;;
60031;Laerm;45901;47.600;9.890;2023-04-05T08:30:16;40.69;38.05;45.07;;
60031;Laerm;45901;47.600;9.890;2023-04-05T08:32:44;40.56;38.21;46.28;;
60031;Laerm;45901;47.600;9.890;2023-04-05T08:35:11;40.36;37.70;49.97;;
60031;Laerm;45901;47.600;9.890;2023-04-05T08:37:39;40.29;37.70;44.89;;
60031;Laerm;45901;47.600;9.890;2023-04-05T08:40:07;40.13;37.52;43.54;;
60031;Laerm;45901;47.600;9.890;2023-04-05T08:42:43;40.29;38.05;42.29;;
60031;Laerm;45901;47.600;9.890;2023-04-05T08:45:27;40.59;37.32;45.94;;
60031;Laerm;45901;47.600;9.890;2023-04-05T08:48:15;40.20;37.70;43.63;;
60031;Laerm;45901;47.600;9.890;2023-04-05T08:51:04;40.40;37.88;43.99;;
60031;Laerm;45901;47.600;9.890;2023-04-05T08:53:32;40.46;37.70;47.83;;
60031;Laerm;45901;47.600;9.890;2023-04-05T08:56:00;40.12;37.88;42.53;;
60031;Laerm;45901;47.600;9.890;2023-04-05T08:58:33;40.63;37.88;43.81;;
60031;Laerm;45901;47.600;9.890;2023-04-05T09:01:05;41.22;37.52;47.28;;
60031;Laerm;45901;47.600;9.890;2023-04-05T09:03:55;40.87;37.12;46.13;;
60031;Laerm;45901;47.600;9.890;2023-04-05T09:06:25;40.59;37.88;45.66;;
60031;Laerm;45901;47.600;9.890;2023-04-05T09:08:57;41.58;37.88;49.56;;
60031;Laerm;45901;47.600;9.890;2023-04-05T09:11:46;40.51;37.70;46.52;;
60031;Laerm;45901;47.600;9.890;2023-04-05T09:18:46;40.80;37.52;49.51;;
60031;Laerm;45901;47.600;9.890;2023-04-05T09:21:14;41.60;37.88;51.03;;
60031;Laerm;45901;47.600;9.890;2023-04-05T09:23:51;40.83;38.21;54.61;;
60031;Laerm;45901;47.600;9.890;2023-04-05T09:26:22;41.06;38.21;49.19;;
60031;Laerm;45901;47.600;9.890;2023-04-05T09:28:50;40.61;37.70;44.97;;
60031;Laerm;45901;47.600;9.890;2023-04-05T09:31:32;41.16;37.88;51.13;;
60031;Laerm;45901;47.600;9.890;2023-04-05T09:34:02;41.05;37.88;47.50;;
60031;Laerm;45901;47.600;9.890;2023-04-05T09:36:29;42.71;38.21;48.81;;
60031;Laerm;45901;47.600;9.890;2023-04-05T09:39:05;40.13;37.12;46.43;;
60031;Laerm;45901;47.600;9.890;2023-04-05T09:41:33;40.50;37.12;44.47;;
60031;Laerm;45901;47.600;9.890;2023-04-05T09:44:01;40.21;36.91;45.01;;
60031;Laerm;45901;47.600;9.890;2023-04-05T09:46:30;40.53;37.12;47.55;;
60031;Laerm;45901;47.600;9.890;2023-04-05T09:49:00;40.14;37.32;45.99;;
60031;Laerm;45901;47.600;9.890;2023-04-05T09:51:33;40.29;37.32;50.73;;
60031;Laerm;45901;47.600;9.890;2023-04-05T09:54:02;40.24;37.12;42.76;;
60031;Laerm;45901;47.600;9.890;2023-04-05T09:56:32;41.20;36.69;56.42;;
60031;Laerm;45901;47.600;9.890;2023-04-05T09:59:01;40.05;37.12;45.91;;
60031;Laerm;45901;47.600;9.890;2023-04-05T10:01:32;42.17;38.05;48.29;;
60031;Laerm;45901;47.600;9.890;2023-04-05T10:04:01;41.30;36.91;47.59;;
60031;Laerm;45901;47.600;9.890;2023-04-05T10:06:35;41.42;37.52;48.31;;
60031;Laerm;45901;47.600;9.890;2023-04-05T10:09:03;40.48;37.12;47.77;;
60031;Laerm;45901;47.600;9.890;2023-04-05T10:11:31;40.21;36.91;45.54;;
60031;Laerm;45901;47.600;9.890;2023-04-05T10:14:01;39.84;36.91;49.10;;
60031;Laerm;45901;47.600;9.890;2023-04-05T10:16:32;39.97;37.12;50.45;;
60031;Laerm;45901;47.600;9.890;2023-04-05T10:19:05;39.93;36.91;42.59;;
60031;Laerm;45901;47.600;9.890;2023-04-05T10:21:35;39.75;36.91;42.53;;
60031;Laerm;45901;47.600;9.890;2023-04-05T10:24:14;40.11;37.12;44.58;;
60031;Laerm;45901;47.600;9.890;2023-04-05T10:26:53;40.05;37.12;45.17;;
60031;Laerm;45901;47.600;9.890;2023-04-05T10:29:42;40.76;37.12;53.90;;
60031;Laerm;45901;47.600;9.890;2023-04-05T10:32:16;40.99;38.52;53.23;;
60031;Laerm;45901;47.600;9.890;2023-04-05T10:34:56;41.92;38.21;48.43;;
60031;Laerm;45901;47.600;9.890;2023-04-05T10:37:35;40.71;37.32;46.84;;
60031;Laerm;45901;47.600;9.890;2023-04-05T10:40:09;40.43;37.52;44.35;;
60031;Laerm;45901;47.600;9.890;2023-04-05T10:42:41;40.45;37.52;45.66;;
60031;Laerm;45901;47.600;9.890;2023-04-05T10:45:12;40.67;37.52;45.30;;
60031;Laerm;45901;47.600;9.890;2023-04-05T10:47:47;41.13;37.70;48.71;;
60031;Laerm;45901;47.600;9.890;2023-04-05T10:50:22;41.32;37.35;47.00;;
60031;Laerm;45901;47.600;9.890;2023-04-05T10:52:50;41.26;37.32;60.23;;
60031;Laerm;45901;47.600;9.890;2023-04-05T10:55:19;41.36;37.88;47.67;;
60031;Laerm;45901;47.600;9.890;2023-04-05T10:57:48;41.42;37.70;49.85;;
60031;Laerm;45901;47.600;9.890;2023-04-05T11:00:17;41.88;38.05;48.81;;
60031;Laerm;45901;47.600;9.890;2023-04-05T11:02:44;44.08;38.67;62.09;;
60031;Laerm;45901;47.600;9.890;2023-04-05T11:05:31;45.68;39.46;61.84;;
60031;Laerm;45901;47.600;9.890;2023-04-05T11:08:06;44.15;38.81;59.56;;
60031;Laerm;45901;47.600;9.890;2023-04-05T11:10:36;40.33;36.91;46.66;;
60031;Laerm;45901;47.600;9.890;2023-04-05T11:13:10;41.10;36.69;51.17;;
60031;Laerm;45901;47.600;9.890;2023-04-05T11:15:38;40.47;37.12;44.73;;
60031;Laerm;45901;47.600;9.890;2023-04-05T11:18:08;41.82;37.32;48.03;;
60031;Laerm;45901;47.600;9.890;2023-04-05T11:20:43;40.64;37.32;45.36;;
60031;Laerm;45901;47.600;9.890;2023-04-05T11:23:12;41.12;37.32;48.32;;
60031;Laerm;45901;47.600;9.890;2023-04-05T11:25:46;40.73;36.45;48.16;;
60031;Laerm;45901;47.600;9.890;2023-04-05T11:28:32;40.13;36.20;43.77;;
60031;Laerm;45901;47.600;9.890;2023-04-05T11:31:12;41.09;37.32;47.68;;
60031;Laerm;45901;47.600;9.890;2023-04-05T11:33:57;40.15;36.69;49.97;;
60031;Laerm;45901;47.600;9.890;2023-04-05T11:36:37;40.15;36.34;45.01;;
60031;Laerm;45901;47.600;9.890;2023-04-05T11:39:25;39.79;36.45;47.46;;
60031;Laerm;45901;47.600;9.890;2023-04-05T11:41:57;40.66;37.12;56.73;;
60031;Laerm;45901;47.600;9.890;2023-04-05T11:44:28;40.89;37.32;46.71;;
60031;Laerm;45901;47.600;9.890;2023-04-05T11:46:56;40.15;36.91;48.36;;
60031;Laerm;45901;47.600;9.890;2023-04-05T11:49:24;40.56;37.12;46.80;;
60031;Laerm;45901;47.600;9.890;2023-04-05T11:51:53;40.29;36.69;46.43;;
60031;Laerm;45901;47.600;9.890;2023-04-05T11:54:33;39.81;35.94;44.43;;
60031;Laerm;45901;47.600;9.890;2023-04-05T11:57:01;39.80;36.45;44.19;;
60031;Laerm;45901;47.600;9.890;2023-04-05T11:59:30;40.05;35.94;44.87;;
60031;Laerm;45901;47.600;9.890;2023-04-05T12:02:00;40.08;36.20;44.65;;
60031;Laerm;45901;47.600;9.890;2023-04-05T12:04:29;39.73;35.66;43.77;;
60031;Laerm;45901;47.600;9.890;2023-04-05T12:07:13;40.03;36.20;53.27;;
60031;Laerm;45901;47.600;9.890;2023-04-05T12:09:59;40.42;36.69;52.62;;
60031;Laerm;45901;47.600;9.890;2023-04-05T12:12:28;39.89;36.20;46.57;;
60031;Laerm;45901;47.600;9.890;2023-04-05T12:14:59;39.97;36.45;45.07;;
60031;Laerm;45901;47.600;9.890;2023-04-05T12:17:40;40.35;36.91;48.64;;
60031;Laerm;45901;47.600;9.890;2023-04-05T12:20:09;40.63;37.12;46.55;;
60031;Laerm;45901;47.600;9.890;2023-04-05T12:22:42;40.58;36.45;58.64;;
60031;Laerm;45901;47.600;9.890;2023-04-05T12:25:10;39.82;35.94;43.72;;
60031;Laerm;45901;47.600;9.890;2023-04-05T12:27:38;39.80;36.45;44.80;;
60031;Laerm;45901;47.600;9.890;2023-04-05T12:30:12;39.70;35.66;47.93;;
60031;Laerm;45901;47.600;9.890;2023-04-05T12:32:49;39.93;35.94;49.16;;
60031;Laerm;45901;47.600;9.890;2023-04-05T12:35:18;40.79;36.20;47.36;;
60031;Laerm;45901;47.600;9.890;2023-04-05T12:37:49;39.85;35.94;46.13;;
60031;Laerm;45901;47.600;9.890;2023-04-05T12:40:20;43.30;37.52;50.26;;
60031;Laerm;45901;47.600;9.890;2023-04-05T12:42:49;43.81;37.70;53.12;;
60031;Laerm;45901;47.600;9.890;2023-04-05T12:45:17;42.07;36.69;49.19;;
60031;Laerm;45901;47.600;9.890;2023-04-05T12:47:49;44.06;39.46;51.83;;
60031;Laerm;45901;47.600;9.890;2023-04-05T12:50:19;43.49;38.52;49.62;;
60031;Laerm;45901;47.600;9.890;2023-04-05T12:52:56;41.88;37.32;49.06;;
60031;Laerm;45901;47.600;9.890;2023-04-05T12:55:25;41.40;37.52;48.37;;
60031;Laerm;45901;47.600;9.890;2023-04-05T12:57:53;41.13;37.52;48.95;;
60031;Laerm;45901;47.600;9.890;2023-04-05T13:00:22;41.55;37.12;50.68;;
60031;Laerm;45901;47.600;9.890;2023-04-05T13:02:54;43.65;38.95;51.58;;
60031;Laerm;45901;47.600;9.890;2023-04-05T13:05:23;41.76;36.91;49.98;;
60031;Laerm;45901;47.600;9.890;2023-04-05T13:07:51;40.79;36.45;56.17;;
60031;Laerm;45901;47.600;9.890;2023-04-05T13:10:22;40.27;36.91;46.18;;
60031;Laerm;45901;47.600;9.890;2023-04-05T13:12:50;40.95;38.21;45.77;;
60031;Laerm;45901;47.600;9.890;2023-04-05T13:15:18;41.34;36.91;55.92;;
60031;Laerm;45901;47.600;9.890;2023-04-05T13:17:45;53.12;36.45;64.46;;
60031;Laerm;45901;47.600;9.890;2023-04-05T13:20:16;52.76;36.45;63.38;;
60031;Laerm;45901;47.600;9.890;2023-04-05T13:22:45;53.60;36.20;62.59;;
60031;Laerm;45901;47.600;9.890;2023-04-05T13:25:13;41.51;36.69;64.62;;
60031;Laerm;45901;47.600;9.890;2023-04-05T13:27:42;39.76;36.20;45.30;;
60031;Laerm;45901;47.600;9.890;2023-04-05T13:30:10;41.23;37.12;49.95;;
60031;Laerm;45901;47.600;9.890;2023-04-05T13:32:38;43.19;36.69;56.66;;
60031;Laerm;45901;47.600;9.890;2023-04-05T13:35:07;40.95;37.32;53.12;;
60031;Laerm;45901;47.600;9.890;2023-04-05T13:37:34;42.09;36.91;55.97;;
60031;Laerm;45901;47.600;9.890;2023-04-05T13:40:02;42.09;37.32;54.17;;
60031;Laerm;45901;47.600;9.890;2023-04-05T13:42:29;40.76;36.91;46.33;;
60031;Laerm;45901;47.600;9.890;2023-04-05T13:44:58;41.63;36.45;52.22;;
60031;Laerm;45901;47.600;9.890;2023-04-05T13:47:26;40.70;36.69;45.30;;
60031;Laerm;45901;47.600;9.890;2023-04-05T13:49:53;40.90;36.69;48.48;;
60031;Laerm;45901;47.600;9.890;2023-04-05T13:52:20;41.42;37.12;55.72;;
60031;Laerm;45901;47.600;9.890;2023-04-05T13:54:48;40.36;35.66;45.57;;
60031;Laerm;45901;47.600;9.890;2023-04-05T13:57:15;39.87;36.20;43.54;;
60031;Laerm;45901;47.600;9.890;2023-04-05T13:59:43;42.81;35.94;53.82;;
60031;Laerm;45901;47.600;9.890;2023-04-05T14:02:12;40.88;35.94;52.73;;
60031;Laerm;45901;47.600;9.890;2023-04-05T14:04:40;39.64;36.20;44.27;;
60031;Laerm;45901;47.600;9.890;2023-04-05T14:07:07;39.78;35.66;46.23;;
60031;Laerm;45901;47.600;9.890;2023-04-05T14:09:35;39.88;35.36;44.83;;
60031;Laerm;45901;47.600;9.890;2023-04-05T14:12:02;40.15;35.36;54.36;;
60031;Laerm;45901;47.600;9.890;2023-04-05T14:14:30;40.14;35.04;52.62;;
60031;Laerm;45901;47.600;9.890;2023-04-05T14:16:57;39.80;35.66;44.27;;
60031;Laerm;45901;47.600;9.890;2023-04-05T14:19:26;40.42;35.66;52.29;;
60031;Laerm;45901;47.600;9.890;2023-04-05T14:21:53;40.57;35.36;56.94;;
60031;Laerm;45901;47.600;9.890;2023-04-05T14:24:20;40.28;34.69;49.14;;
60031;Laerm;45901;47.600;9.890;2023-04-05T14:26:48;39.77;35.36;44.97;;
60031;Laerm;45901;47.600;9.890;2023-04-05T14:29:16;39.67;35.94;43.44;;
60031;Laerm;45901;47.600;9.890;2023-04-05T14:31:44;39.41;35.94;43.94;;
60031;Laerm;45901;47.600;9.890;2023-04-05T14:34:11;40.14;35.66;56.39;;
60031;Laerm;45901;47.600;9.890;2023-04-05T14:36:40;39.84;35.36;48.26;;
60031;Laerm;45901;47.600;9.890;2023-04-05T14:39:07;39.64;34.69;47.28;;
60031;Laerm;45901;47.600;9.890;2023-04-05T14:41:35;39.52;36.20;43.34;;
60031;Laerm;45901;47.600;9.890;2023-04-05T14:44:03;40.37;36.20;45.80;;
60031;Laerm;45901;47.600;9.890;2023-04-05T14:46:31;39.61;35.86;50.60;;
60031;Laerm;45901;47.600;9.890;2023-04-05T14:48:58;40.15;35.94;44.23;;
60031;Laerm;45901;47.600;9.890;2023-04-05T14:51:26;39.70;35.94;43.34;;
60031;Laerm;45901;47.600;9.890;2023-04-05T14:53:55;39.48;35.36;42.93;;
60031;Laerm;45901;47.600;9.890;2023-04-05T14:56:22;40.14;35.94;47.41;;
60031;Laerm;45901;47.600;9.890;2023-04-05T14:58:51;39.91;35.36;47.54;;
60031;Laerm;45901;47.600;9.890;2023-04-05T15:01:18;40.82;36.69;47.95;;
60031;Laerm;45901;47.600;9.890;2023-04-05T15:03:46;39.68;35.66;45.27;;
60031;Laerm;45901;47.600;9.890;2023-04-05T15:06:15;40.51;36.45;52.32;;